sensor_id;sensor_type;location;lat;lon;timestamp;temperature;humidity
20337;DHT22;10326;53.660;10.200;2024-01-16T00:02:20;3.50;91.80
20337;DHT22;10326;53.660;10.200;2024-01-16T00:04:47;3.50;91.70
20337;DHT22;10326;53.660;10.200;2024-01-16T00:07:14;3.50;91.70
20337;DHT22;10326;53.660;10.200;2024-01-16T00:09:41;3.40;91.70
20337;DHT22;10326;53.660;10.200;2024-01-16T00:12:08;3.40;91.80
20337;DHT22;10326;53.660;10.200;2024-01-16T00:14:36;3.40;91.80
20337;DHT22;10326;53.660;10.200;2024-01-16T00:17:03;3.40;91.80
20337;DHT22;10326;53.660;10.200;2024-01-16T00:19:34;3.40;91.80
20337;DHT22;10326;53.660;10.200;2024-01-16T00:22:01;3.40;91.80
20337;DHT22;10326;53.660;10.200;2024-01-16T00:24:30;3.40;91.80
20337;DHT22;10326;53.660;10.200;2024-01-16T00:26:57;3.40;91.80
20337;DHT22;10326;53.660;10.200;2024-01-16T00:29:25;3.30;91.80
20337;DHT22;10326;53.660;10.200;2024-01-16T00:31:52;3.30;91.90
20337;DHT22;10326;53.660;10.200;2024-01-16T00:34:19;3.30;91.80
20337;DHT22;10326;53.660;10.200;2024-01-16T00:36:48;3.30;91.80
20337;DHT22;10326;53.660;10.200;2024-01-16T00:39:15;3.30;91.80
20337;DHT22;10326;53.660;10.200;2024-01-16T00:41:42;3.30;91.70
20337;DHT22;10326;53.660;10.200;2024-01-16T00:44:10;3.30;91.80
20337;DHT22;10326;53.660;10.200;2024-01-16T00:46:37;3.30;91.80
20337;DHT22;10326;53.660;10.200;2024-01-16T00:49:04;3.30;91.70
20337;DHT22;10326;53.660;10.200;2024-01-16T00:51:33;3.30;92.10
20337;DHT22;10326;53.660;10.200;2024-01-16T00:54:01;3.30;91.80
20337;DHT22;10326;53.660;10.200;2024-01-16T00:56:28;3.20;91.70
20337;DHT22;10326;53.660;10.200;2024-01-16T00:58:58;3.20;91.70
20337;DHT22;10326;53.660;10.200;2024-01-16T01:01:25;3.20;91.80
20337;DHT22;10326;53.660;10.200;2024-01-16T01:03:52;3.20;91.80
20337;DHT22;10326;53.660;10.200;2024-01-16T01:06:19;3.20;91.80
20337;DHT22;10326;53.660;10.200;2024-01-16T01:08:46;3.20;91.70
20337;DHT22;10326;53.660;10.200;2024-01-16T01:11:15;3.20;91.70
20337;DHT22;10326;53.660;10.200;2024-01-16T01:13:42;3.20;91.80
20337;DHT22;10326;53.660;10.200;2024-01-16T01:16:09;3.30;91.80
20337;DHT22;10326;53.660;10.200;2024-01-16T01:18:36;3.20;91.90
20337;DHT22;10326;53.660;10.200;2024-01-16T01:21:03;3.20;91.80
20337;DHT22;10326;53.660;10.200;2024-01-16T01:23:30;3.20;91.70
20337;DHT22;10326;53.660;10.200;2024-01-16T01:25:58;3.20;91.80
20337;DHT22;10326;53.660;10.200;2024-01-16T01:28:26;3.20;91.80
20337;DHT22;10326;53.660;10.200;2024-01-16T01:30:54;3.20;91.80
20337;DHT22;10326;53.660;10.200;2024-01-16T01:33:21;3.20;91.80
20337;DHT22;10326;53.660;10.200;2024-01-16T01:35:48;3.20;91.70
20337;DHT22;10326;53.660;10.200;2024-01-16T01:38:15;3.20;91.70
20337;DHT22;10326;53.660;10.200;2024-01-16T01:40:44;3.20;91.70
20337;DHT22;10326;53.660;10.200;2024-01-16T01:43:21;3.20;91.70
20337;DHT22;10326;53.660;10.200;2024-01-16T01:46:03;3.20;91.80
20337;DHT22;10326;53.660;10.200;2024-01-16T01:51:04;3.20;91.70
20337;DHT22;10326;53.660;10.200;2024-01-16T01:53:32;3.20;91.60
20337;DHT22;10326;53.660;10.200;2024-01-16T01:56:03;3.10;91.60
20337;DHT22;10326;53.660;10.200;2024-01-16T01:58:33;3.10;91.60
20337;DHT22;10326;53.660;10.200;2024-01-16T02:01:02;3.10;91.60
20337;DHT22;10326;53.660;10.200;2024-01-16T02:03:35;3.10;91.60
20337;DHT22;10326;53.660;10.200;2024-01-16T02:06:10;3.00;91.60
20337;DHT22;10326;53.660;10.200;2024-01-16T02:08:38;3.00;91.60
20337;DHT22;10326;53.660;10.200;2024-01-16T02:11:06;3.00;91.60
20337;DHT22;10326;53.660;10.200;2024-01-16T02:13:34;2.90;91.50
20337;DHT22;10326;53.660;10.200;2024-01-16T02:16:03;2.90;91.60
20337;DHT22;10326;53.660;10.200;2024-01-16T02:18:32;2.90;91.60
20337;DHT22;10326;53.660;10.200;2024-01-16T02:21:00;2.80;91.50
20337;DHT22;10326;53.660;10.200;2024-01-16T02:23:29;2.80;91.50
20337;DHT22;10326;53.660;10.200;2024-01-16T02:25:57;2.80;91.60
20337;DHT22;10326;53.660;10.200;2024-01-16T02:28:25;2.70;91.60
20337;DHT22;10326;53.660;10.200;2024-01-16T02:30:52;2.70;91.50
20337;DHT22;10326;53.660;10.200;2024-01-16T02:33:19;2.70;91.60
20337;DHT22;10326;53.660;10.200;2024-01-16T02:35:47;2.80;91.60
20337;DHT22;10326;53.660;10.200;2024-01-16T02:38:14;2.80;91.60
20337;DHT22;10326;53.660;10.200;2024-01-16T02:40:43;2.80;91.50
20337;DHT22;10326;53.660;10.200;2024-01-16T02:43:10;2.80;91.50
20337;DHT22;10326;53.660;10.200;2024-01-16T02:45:37;2.70;91.50
20337;DHT22;10326;53.660;10.200;2024-01-16T02:48:05;2.70;91.50
20337;DHT22;10326;53.660;10.200;2024-01-16T02:50:32;2.70;91.50
20337;DHT22;10326;53.660;10.200;2024-01-16T02:52:59;2.70;91.50
20337;DHT22;10326;53.660;10.200;2024-01-16T02:55:27;2.70;91.50
20337;DHT22;10326;53.660;10.200;2024-01-16T02:57:55;2.70;91.50
20337;DHT22;10326;53.660;10.200;2024-01-16T03:00:22;2.60;91.40
20337;DHT22;10326;53.660;10.200;2024-01-16T03:02:49;2.70;91.50
20337;DHT22;10326;53.660;10.200;2024-01-16T03:05:16;2.70;91.60
20337;DHT22;10326;53.660;10.200;2024-01-16T03:07:43;2.70;91.60
20337;DHT22;10326;53.660;10.200;2024-01-16T03:10:11;2.70;91.50
20337;DHT22;10326;53.660;10.200;2024-01-16T03:12:38;2.70;91.60
20337;DHT22;10326;53.660;10.200;2024-01-16T03:15:07;2.70;91.50
20337;DHT22;10326;53.660;10.200;2024-01-16T03:17:35;2.70;91.60
20337;DHT22;10326;53.660;10.200;2024-01-16T03:20:02;2.70;91.60
20337;DHT22;10326;53.660;10.200;2024-01-16T03:22:30;2.70;91.60
20337;DHT22;10326;53.660;10.200;2024-01-16T03:24:57;2.70;91.60
20337;DHT22;10326;53.660;10.200;2024-01-16T03:27:24;2.70;91.60
20337;DHT22;10326;53.660;10.200;2024-01-16T03:29:52;2.70;91.50
20337;DHT22;10326;53.660;10.200;2024-01-16T03:32:21;2.70;91.50
20337;DHT22;10326;53.660;10.200;2024-01-16T03:34:48;2.80;91.60
20337;DHT22;10326;53.660;10.200;2024-01-16T03:37:15;2.80;91.50
20337;DHT22;10326;53.660;10.200;2024-01-16T03:39:42;2.80;91.60
20337;DHT22;10326;53.660;10.200;2024-01-16T03:42:10;2.80;91.50
20337;DHT22;10326;53.660;10.200;2024-01-16T03:44:39;2.80;91.50
20337;DHT22;10326;53.660;10.200;2024-01-16T03:47:06;2.80;91.50
20337;DHT22;10326;53.660;10.200;2024-01-16T03:49:35;2.80;91.50
20337;DHT22;10326;53.660;10.200;2024-01-16T03:52:02;2.80;91.40
20337;DHT22;10326;53.660;10.200;2024-01-16T03:54:29;2.80;91.50
20337;DHT22;10326;53.660;10.200;2024-01-16T03:56:56;2.80;91.50
20337;DHT22;10326;53.660;10.200;2024-01-16T03:59:24;2.80;91.50
20337;DHT22;10326;53.660;10.200;2024-01-16T04:01:51;2.80;91.50
20337;DHT22;10326;53.660;10.200;2024-01-16T04:04:18;2.80;91.50
20337;DHT22;10326;53.660;10.200;2024-01-16T04:06:47;2.70;91.50
20337;DHT22;10326;53.660;10.200;2024-01-16T04:09:14;2.70;91.40
20337;DHT22;10326;53.660;10.200;2024-01-16T04:11:41;2.70;91.50
20337;DHT22;10326;53.660;10.200;2024-01-16T04:14:09;2.60;91.50
20337;DHT22;10326;53.660;10.200;2024-01-16T04:16:36;2.60;91.50
20337;DHT22;10326;53.660;10.200;2024-01-16T04:19:03;2.60;91.60
20337;DHT22;10326;53.660;10.200;2024-01-16T04:21:30;2.60;91.60
20337;DHT22;10326;53.660;10.200;2024-01-16T04:23:59;2.60;91.70
20337;DHT22;10326;53.660;10.200;2024-01-16T04:26:26;2.50;91.60
20337;DHT22;10326;53.660;10.200;2024-01-16T04:28:53;2.60;91.70
20337;DHT22;10326;53.660;10.200;2024-01-16T04:31:20;2.60;91.70
20337;DHT22;10326;53.660;10.200;2024-01-16T04:33:48;2.60;91.70
20337;DHT22;10326;53.660;10.200;2024-01-16T04:36:15;2.60;91.70
20337;DHT22;10326;53.660;10.200;2024-01-16T04:38:42;2.60;91.70
20337;DHT22;10326;53.660;10.200;2024-01-16T04:41:10;2.70;92.00
20337;DHT22;10326;53.660;10.200;2024-01-16T04:43:37;2.70;91.60
20337;DHT22;10326;53.660;10.200;2024-01-16T04:46:05;2.70;91.60
20337;DHT22;10326;53.660;10.200;2024-01-16T04:48:32;2.80;91.70
20337;DHT22;10326;53.660;10.200;2024-01-16T04:50:59;2.70;91.70
20337;DHT22;10326;53.660;10.200;2024-01-16T04:53:27;2.70;91.70
20337;DHT22;10326;53.660;10.200;2024-01-16T04:55:54;2.70;91.70
20337;DHT22;10326;53.660;10.200;2024-01-16T04:58:22;2.70;91.70
20337;DHT22;10326;53.660;10.200;2024-01-16T05:00:50;2.80;91.70
20337;DHT22;10326;53.660;10.200;2024-01-16T05:03:17;2.80;91.70
20337;DHT22;10326;53.660;10.200;2024-01-16T05:05:44;2.70;91.70
20337;DHT22;10326;53.660;10.200;2024-01-16T05:08:11;2.80;91.70
20337;DHT22;10326;53.660;10.200;2024-01-16T05:10:39;2.80;91.80
20337;DHT22;10326;53.660;10.200;2024-01-16T05:13:06;2.80;91.70
20337;DHT22;10326;53.660;10.200;2024-01-16T05:15:34;2.90;91.80
20337;DHT22;10326;53.660;10.200;2024-01-16T05:18:02;2.80;91.80
20337;DHT22;10326;53.660;10.200;2024-01-16T05:20:29;2.80;91.90
20337;DHT22;10326;53.660;10.200;2024-01-16T05:22:56;2.80;91.80
20337;DHT22;10326;53.660;10.200;2024-01-16T05:25:24;2.90;92.00
20337;DHT22;10326;53.660;10.200;2024-01-16T05:27:51;2.90;91.80
20337;DHT22;10326;53.660;10.200;2024-01-16T05:30:18;2.90;91.80
20337;DHT22;10326;53.660;10.200;2024-01-16T05:32:47;2.90;91.80
20337;DHT22;10326;53.660;10.200;2024-01-16T05:35:14;3.00;91.90
20337;DHT22;10326;53.660;10.200;2024-01-16T05:37:41;3.00;91.90
20337;DHT22;10326;53.660;10.200;2024-01-16T05:40:10;3.00;91.90
20337;DHT22;10326;53.660;10.200;2024-01-16T05:42:37;3.00;91.90
20337;DHT22;10326;53.660;10.200;2024-01-16T05:45:06;3.00;91.90
20337;DHT22;10326;53.660;10.200;2024-01-16T05:47:34;3.00;91.90
20337;DHT22;10326;53.660;10.200;2024-01-16T05:50:04;3.00;91.90
20337;DHT22;10326;53.660;10.200;2024-01-16T05:52:32;3.00;91.90
20337;DHT22;10326;53.660;10.200;2024-01-16T05:54:59;3.00;91.80
20337;DHT22;10326;53.660;10.200;2024-01-16T05:57:26;3.00;91.80
20337;DHT22;10326;53.660;10.200;2024-01-16T05:59:53;3.00;91.80
20337;DHT22;10326;53.660;10.200;2024-01-16T06:02:21;2.90;91.80
20337;DHT22;10326;53.660;10.200;2024-01-16T06:04:48;2.90;92.00
20337;DHT22;10326;53.660;10.200;2024-01-16T06:07:16;2.90;92.00
20337;DHT22;10326;53.660;10.200;2024-01-16T06:09:44;2.90;92.00
20337;DHT22;10326;53.660;10.200;2024-01-16T06:12:11;2.90;92.10
20337;DHT22;10326;53.660;10.200;2024-01-16T06:14:38;2.90;92.10
20337;DHT22;10326;53.660;10.200;2024-01-16T06:17:05;2.90;92.10
20337;DHT22;10326;53.660;10.200;2024-01-16T06:19:33;2.90;92.10
20337;DHT22;10326;53.660;10.200;2024-01-16T06:22:00;2.90;92.20
20337;DHT22;10326;53.660;10.200;2024-01-16T06:24:28;2.90;92.20
20337;DHT22;10326;53.660;10.200;2024-01-16T06:27:03;3.00;92.20
20337;DHT22;10326;53.660;10.200;2024-01-16T06:29:31;3.00;92.30
20337;DHT22;10326;53.660;10.200;2024-01-16T06:31:58;3.00;92.20
20337;DHT22;10326;53.660;10.200;2024-01-16T06:34:25;3.00;92.20
20337;DHT22;10326;53.660;10.200;2024-01-16T06:36:52;3.00;92.20
20337;DHT22;10326;53.660;10.200;2024-01-16T06:39:19;3.00;92.10
20337;DHT22;10326;53.660;10.200;2024-01-16T06:41:49;3.00;92.10
20337;DHT22;10326;53.660;10.200;2024-01-16T06:44:16;3.00;92.10
20337;DHT22;10326;53.660;10.200;2024-01-16T06:46:43;3.00;92.20
20337;DHT22;10326;53.660;10.200;2024-01-16T06:49:10;3.00;92.20
20337;DHT22;10326;53.660;10.200;2024-01-16T06:51:37;3.10;92.30
20337;DHT22;10326;53.660;10.200;2024-01-16T06:54:04;3.10;92.20
20337;DHT22;10326;53.660;10.200;2024-01-16T06:56:31;3.10;92.30
20337;DHT22;10326;53.660;10.200;2024-01-16T06:59:00;3.10;92.30
20337;DHT22;10326;53.660;10.200;2024-01-16T07:01:27;3.10;92.20
20337;DHT22;10326;53.660;10.200;2024-01-16T07:03:54;3.10;92.30
20337;DHT22;10326;53.660;10.200;2024-01-16T07:06:21;3.10;92.40
20337;DHT22;10326;53.660;10.200;2024-01-16T07:08:48;3.10;92.40
20337;DHT22;10326;53.660;10.200;2024-01-16T07:11:15;3.10;92.40
20337;DHT22;10326;53.660;10.200;2024-01-16T07:13:43;3.10;92.50
20337;DHT22;10326;53.660;10.200;2024-01-16T07:16:12;3.10;92.50
20337;DHT22;10326;53.660;10.200;2024-01-16T07:18:40;3.10;92.40
20337;DHT22;10326;53.660;10.200;2024-01-16T07:21:16;3.10;92.40
20337;DHT22;10326;53.660;10.200;2024-01-16T07:23:44;3.10;92.60
20337;DHT22;10326;53.660;10.200;2024-01-16T07:26:11;3.10;92.40
20337;DHT22;10326;53.660;10.200;2024-01-16T07:28:38;3.10;92.50
20337;DHT22;10326;53.660;10.200;2024-01-16T07:31:05;3.10;92.50
20337;DHT22;10326;53.660;10.200;2024-01-16T07:33:33;3.10;92.60
20337;DHT22;10326;53.660;10.200;2024-01-16T07:36:01;3.10;92.50
20337;DHT22;10326;53.660;10.200;2024-01-16T07:38:28;3.10;92.50
20337;DHT22;10326;53.660;10.200;2024-01-16T07:40:55;3.10;92.60
20337;DHT22;10326;53.660;10.200;2024-01-16T07:43:22;3.10;92.50
20337;DHT22;10326;53.660;10.200;2024-01-16T07:45:49;3.10;92.60
20337;DHT22;10326;53.660;10.200;2024-01-16T07:48:16;3.10;92.70
20337;DHT22;10326;53.660;10.200;2024-01-16T07:50:45;3.10;92.60
20337;DHT22;10326;53.660;10.200;2024-01-16T07:53:12;3.10;92.70
20337;DHT22;10326;53.660;10.200;2024-01-16T07:55:39;3.10;92.60
20337;DHT22;10326;53.660;10.200;2024-01-16T07:58:06;3.10;92.60
20337;DHT22;10326;53.660;10.200;2024-01-16T08:00:33;3.10;92.70
20337;DHT22;10326;53.660;10.200;2024-01-16T08:03:01;3.10;92.70
20337;DHT22;10326;53.660;10.200;2024-01-16T08:05:28;3.10;92.70
20337;DHT22;10326;53.660;10.200;2024-01-16T08:07:57;3.10;92.90
20337;DHT22;10326;53.660;10.200;2024-01-16T08:10:24;3.10;92.70
20337;DHT22;10326;53.660;10.200;2024-01-16T08:12:51;3.10;92.80
20337;DHT22;10326;53.660;10.200;2024-01-16T08:15:18;3.20;92.80
20337;DHT22;10326;53.660;10.200;2024-01-16T08:17:46;3.20;92.70
20337;DHT22;10326;53.660;10.200;2024-01-16T08:20:14;3.20;92.70
20337;DHT22;10326;53.660;10.200;2024-01-16T08:22:41;3.20;92.80
20337;DHT22;10326;53.660;10.200;2024-01-16T08:25:10;3.20;92.70
20337;DHT22;10326;53.660;10.200;2024-01-16T08:27:37;3.20;92.70
20337;DHT22;10326;53.660;10.200;2024-01-16T08:30:08;3.20;92.70
20337;DHT22;10326;53.660;10.200;2024-01-16T08:32:36;3.10;92.80
20337;DHT22;10326;53.660;10.200;2024-01-16T08:35:04;3.20;92.70
20337;DHT22;10326;53.660;10.200;2024-01-16T08:37:33;3.20;92.90
20337;DHT22;10326;53.660;10.200;2024-01-16T08:40:00;3.20;92.90
20337;DHT22;10326;53.660;10.200;2024-01-16T08:42:30;3.20;92.90
20337;DHT22;10326;53.660;10.200;2024-01-16T08:44:57;3.20;92.90
20337;DHT22;10326;53.660;10.200;2024-01-16T08:47:24;3.20;92.80
20337;DHT22;10326;53.660;10.200;2024-01-16T08:49:52;3.20;92.80
20337;DHT22;10326;53.660;10.200;2024-01-16T08:52:19;3.20;92.90
20337;DHT22;10326;53.660;10.200;2024-01-16T08:54:46;3.20;92.90
20337;DHT22;10326;53.660;10.200;2024-01-16T08:57:13;3.20;92.90
20337;DHT22;10326;53.660;10.200;2024-01-16T08:59:42;3.30;93.00
20337;DHT22;10326;53.660;10.200;2024-01-16T09:02:10;3.30;92.90
20337;DHT22;10326;53.660;10.200;2024-01-16T09:04:37;3.30;92.90
20337;DHT22;10326;53.660;10.200;2024-01-16T09:07:05;3.30;93.00
20337;DHT22;10326;53.660;10.200;2024-01-16T09:09:32;3.30;92.90
20337;DHT22;10326;53.660;10.200;2024-01-16T09:11:59;3.30;92.90
20337;DHT22;10326;53.660;10.200;2024-01-16T09:14:26;3.30;93.00
20337;DHT22;10326;53.660;10.200;2024-01-16T09:16:54;3.40;93.00
20337;DHT22;10326;53.660;10.200;2024-01-16T09:19:21;3.40;92.90
20337;DHT22;10326;53.660;10.200;2024-01-16T09:21:48;3.40;93.00
20337;DHT22;10326;53.660;10.200;2024-01-16T09:24:16;3.40;92.90
20337;DHT22;10326;53.660;10.200;2024-01-16T09:26:44;3.40;93.00
20337;DHT22;10326;53.660;10.200;2024-01-16T09:29:12;3.40;92.90
20337;DHT22;10326;53.660;10.200;2024-01-16T09:31:40;3.40;93.00
20337;DHT22;10326;53.660;10.200;2024-01-16T09:34:09;3.40;93.00
20337;DHT22;10326;53.660;10.200;2024-01-16T09:36:38;3.40;93.00
20337;DHT22;10326;53.660;10.200;2024-01-16T09:39:06;3.50;93.00
20337;DHT22;10326;53.660;10.200;2024-01-16T09:41:34;3.50;93.00
20337;DHT22;10326;53.660;10.200;2024-01-16T09:44:01;3.50;93.00
20337;DHT22;10326;53.660;10.200;2024-01-16T09:46:31;3.50;93.00
20337;DHT22;10326;53.660;10.200;2024-01-16T09:49:00;3.50;93.00
20337;DHT22;10326;53.660;10.200;2024-01-16T09:51:29;3.50;93.10
20337;DHT22;10326;53.660;10.200;2024-01-16T09:53:56;3.50;93.10
20337;DHT22;10326;53.660;10.200;2024-01-16T09:56:24;3.50;93.10
20337;DHT22;10326;53.660;10.200;2024-01-16T09:58:56;3.50;93.10
20337;DHT22;10326;53.660;10.200;2024-01-16T10:01:27;3.50;93.10
20337;DHT22;10326;53.660;10.200;2024-01-16T10:03:55;3.50;93.30
20337;DHT22;10326;53.660;10.200;2024-01-16T10:06:23;3.50;93.20
20337;DHT22;10326;53.660;10.200;2024-01-16T10:08:52;3.50;93.10
20337;DHT22;10326;53.660;10.200;2024-01-16T10:11:19;3.50;93.10
20337;DHT22;10326;53.660;10.200;2024-01-16T10:13:46;3.60;93.10
20337;DHT22;10326;53.660;10.200;2024-01-16T10:16:14;3.60;93.20
20337;DHT22;10326;53.660;10.200;2024-01-16T10:18:42;3.60;93.10
20337;DHT22;10326;53.660;10.200;2024-01-16T10:21:20;3.60;93.20
20337;DHT22;10326;53.660;10.200;2024-01-16T10:23:49;3.70;93.20
20337;DHT22;10326;53.660;10.200;2024-01-16T10:26:17;3.70;93.40
20337;DHT22;10326;53.660;10.200;2024-01-16T10:28:45;3.70;93.10
20337;DHT22;10326;53.660;10.200;2024-01-16T10:31:13;3.70;93.10
20337;DHT22;10326;53.660;10.200;2024-01-16T10:33:40;3.80;93.10
20337;DHT22;10326;53.660;10.200;2024-01-16T10:36:09;3.70;93.00
20337;DHT22;10326;53.660;10.200;2024-01-16T10:38:40;3.70;93.00
20337;DHT22;10326;53.660;10.200;2024-01-16T10:41:11;3.70;93.00
20337;DHT22;10326;53.660;10.200;2024-01-16T10:43:42;3.70;93.10
20337;DHT22;10326;53.660;10.200;2024-01-16T10:46:10;3.70;93.00
20337;DHT22;10326;53.660;10.200;2024-01-16T10:48:40;3.70;93.00
20337;DHT22;10326;53.660;10.200;2024-01-16T10:51:10;3.70;93.10
20337;DHT22;10326;53.660;10.200;2024-01-16T10:53:41;3.70;93.10
20337;DHT22;10326;53.660;10.200;2024-01-16T10:56:10;3.70;93.10
20337;DHT22;10326;53.660;10.200;2024-01-16T10:58:42;3.70;93.10
20337;DHT22;10326;53.660;10.200;2024-01-16T11:01:11;3.70;93.10
20337;DHT22;10326;53.660;10.200;2024-01-16T11:03:46;3.70;93.10
20337;DHT22;10326;53.660;10.200;2024-01-16T11:06:15;3.70;93.10
20337;DHT22;10326;53.660;10.200;2024-01-16T11:08:45;3.70;93.10
20337;DHT22;10326;53.660;10.200;2024-01-16T11:11:15;3.70;93.10
20337;DHT22;10326;53.660;10.200;2024-01-16T11:13:46;3.70;93.10
20337;DHT22;10326;53.660;10.200;2024-01-16T11:16:13;3.70;93.10
20337;DHT22;10326;53.660;10.200;2024-01-16T11:18:41;3.70;93.10
20337;DHT22;10326;53.660;10.200;2024-01-16T11:21:10;3.70;93.20
20337;DHT22;10326;53.660;10.200;2024-01-16T11:23:39;3.70;93.20
20337;DHT22;10326;53.660;10.200;2024-01-16T11:26:25;3.80;93.20
20337;DHT22;10326;53.660;10.200;2024-01-16T11:28:54;3.80;93.30
20337;DHT22;10326;53.660;10.200;2024-01-16T11:31:30;3.80;93.30
20337;DHT22;10326;53.660;10.200;2024-01-16T11:33:59;3.80;93.30
20337;DHT22;10326;53.660;10.200;2024-01-16T11:36:51;3.80;93.30
20337;DHT22;10326;53.660;10.200;2024-01-16T11:39:20;3.80;93.40
20337;DHT22;10326;53.660;10.200;2024-01-16T11:41:49;3.80;93.30
20337;DHT22;10326;53.660;10.200;2024-01-16T11:44:43;3.80;93.40
20337;DHT22;10326;53.660;10.200;2024-01-16T11:47:17;3.90;93.40
20337;DHT22;10326;53.660;10.200;2024-01-16T11:49:45;3.90;93.40
20337;DHT22;10326;53.660;10.200;2024-01-16T11:52:13;3.90;93.40
20337;DHT22;10326;53.660;10.200;2024-01-16T11:54:40;3.90;93.40
20337;DHT22;10326;53.660;10.200;2024-01-16T11:57:36;4.00;93.40
20337;DHT22;10326;53.660;10.200;2024-01-16T12:00:20;4.00;93.50
20337;DHT22;10326;53.660;10.200;2024-01-16T12:02:53;4.10;93.50
20337;DHT22;10326;53.660;10.200;2024-01-16T12:05:20;4.10;93.50
20337;DHT22;10326;53.660;10.200;2024-01-16T12:07:48;4.10;93.30
20337;DHT22;10326;53.660;10.200;2024-01-16T12:10:17;4.20;93.30
20337;DHT22;10326;53.660;10.200;2024-01-16T12:12:45;4.10;93.20
20337;DHT22;10326;53.660;10.200;2024-01-16T12:15:17;4.10;93.30
20337;DHT22;10326;53.660;10.200;2024-01-16T12:17:54;4.10;93.30
20337;DHT22;10326;53.660;10.200;2024-01-16T12:20:23;4.20;93.40
20337;DHT22;10326;53.660;10.200;2024-01-16T12:22:55;4.10;93.20
20337;DHT22;10326;53.660;10.200;2024-01-16T12:25:23;4.20;93.30
20337;DHT22;10326;53.660;10.200;2024-01-16T12:27:55;4.20;93.30
20337;DHT22;10326;53.660;10.200;2024-01-16T12:30:24;4.20;93.30
20337;DHT22;10326;53.660;10.200;2024-01-16T12:33:04;4.20;93.30
20337;DHT22;10326;53.660;10.200;2024-01-16T12:35:34;4.20;93.30
20337;DHT22;10326;53.660;10.200;2024-01-16T12:38:02;4.20;93.30
20337;DHT22;10326;53.660;10.200;2024-01-16T12:40:31;4.20;93.30
20337;DHT22;10326;53.660;10.200;2024-01-16T12:42:59;4.20;93.30
20337;DHT22;10326;53.660;10.200;2024-01-16T12:45:26;4.20;93.30
20337;DHT22;10326;53.660;10.200;2024-01-16T12:47:54;4.20;93.20
20337;DHT22;10326;53.660;10.200;2024-01-16T12:50:26;4.20;93.30
20337;DHT22;10326;53.660;10.200;2024-01-16T12:53:02;4.30;93.30
20337;DHT22;10326;53.660;10.200;2024-01-16T12:55:30;4.30;93.30
20337;DHT22;10326;53.660;10.200;2024-01-16T12:58:17;4.30;93.30
20337;DHT22;10326;53.660;10.200;2024-01-16T13:00:45;4.30;93.20
20337;DHT22;10326;53.660;10.200;2024-01-16T13:03:17;4.30;93.20
20337;DHT22;10326;53.660;10.200;2024-01-16T13:05:54;4.30;93.20
20337;DHT22;10326;53.660;10.200;2024-01-16T13:08:21;4.30;93.20
20337;DHT22;10326;53.660;10.200;2024-01-16T13:11:02;4.40;93.20
20337;DHT22;10326;53.660;10.200;2024-01-16T13:13:30;4.30;93.20
20337;DHT22;10326;53.660;10.200;2024-01-16T13:15:58;4.30;93.20
20337;DHT22;10326;53.660;10.200;2024-01-16T13:18:27;4.30;93.20
20337;DHT22;10326;53.660;10.200;2024-01-16T13:20:56;4.30;93.20
20337;DHT22;10326;53.660;10.200;2024-01-16T13:23:25;4.30;93.20
20337;DHT22;10326;53.660;10.200;2024-01-16T13:25:54;4.30;93.20
20337;DHT22;10326;53.660;10.200;2024-01-16T13:28:22;4.30;93.20
20337;DHT22;10326;53.660;10.200;2024-01-16T13:30:50;4.30;93.20
20337;DHT22;10326;53.660;10.200;2024-01-16T13:33:18;4.30;93.10
20337;DHT22;10326;53.660;10.200;2024-01-16T13:35:46;4.30;93.20
20337;DHT22;10326;53.660;10.200;2024-01-16T13:38:15;4.30;93.20
20337;DHT22;10326;53.660;10.200;2024-01-16T13:40:42;4.30;93.20
20337;DHT22;10326;53.660;10.200;2024-01-16T13:43:10;4.30;93.20
20337;DHT22;10326;53.660;10.200;2024-01-16T13:45:37;4.30;93.20
20337;DHT22;10326;53.660;10.200;2024-01-16T13:48:05;4.30;93.30
20337;DHT22;10326;53.660;10.200;2024-01-16T13:50:33;4.30;93.20
20337;DHT22;10326;53.660;10.200;2024-01-16T13:53:00;4.30;93.10
20337;DHT22;10326;53.660;10.200;2024-01-16T13:55:30;4.30;93.10
20337;DHT22;10326;53.660;10.200;2024-01-16T13:57:57;4.30;93.10
20337;DHT22;10326;53.660;10.200;2024-01-16T14:00:26;4.30;93.10
20337;DHT22;10326;53.660;10.200;2024-01-16T14:02:59;4.30;93.20
20337;DHT22;10326;53.660;10.200;2024-01-16T14:05:33;4.30;93.10
20337;DHT22;10326;53.660;10.200;2024-01-16T14:08:04;4.30;93.10
20337;DHT22;10326;53.660;10.200;2024-01-16T14:10:33;4.30;93.10
20337;DHT22;10326;53.660;10.200;2024-01-16T14:13:01;4.30;93.00
20337;DHT22;10326;53.660;10.200;2024-01-16T14:15:31;4.30;93.20
20337;DHT22;10326;53.660;10.200;2024-01-16T14:17:58;4.30;93.20
20337;DHT22;10326;53.660;10.200;2024-01-16T14:20:25;4.30;93.10
20337;DHT22;10326;53.660;10.200;2024-01-16T14:22:53;4.30;93.20
20337;DHT22;10326;53.660;10.200;2024-01-16T14:25:21;4.30;93.20
20337;DHT22;10326;53.660;10.200;2024-01-16T14:27:57;4.30;93.10
20337;DHT22;10326;53.660;10.200;2024-01-16T14:30:26;4.30;93.20
20337;DHT22;10326;53.660;10.200;2024-01-16T14:32:53;4.30;93.10
20337;DHT22;10326;53.660;10.200;2024-01-16T14:35:22;4.30;93.10
20337;DHT22;10326;53.660;10.200;2024-01-16T14:37:51;4.30;93.20
20337;DHT22;10326;53.660;10.200;2024-01-16T14:40:19;4.30;93.10
20337;DHT22;10326;53.660;10.200;2024-01-16T14:42:53;4.30;93.10
20337;DHT22;10326;53.660;10.200;2024-01-16T14:45:22;4.30;93.20
20337;DHT22;10326;53.660;10.200;2024-01-16T14:47:51;4.30;93.20
20337;DHT22;10326;53.660;10.200;2024-01-16T14:50:19;4.30;93.20
20337;DHT22;10326;53.660;10.200;2024-01-16T14:52:48;4.30;93.20
20337;DHT22;10326;53.660;10.200;2024-01-16T14:55:15;4.30;93.20
20337;DHT22;10326;53.660;10.200;2024-01-16T14:57:43;4.30;93.10
20337;DHT22;10326;53.660;10.200;2024-01-16T15:00:14;4.30;93.10
20337;DHT22;10326;53.660;10.200;2024-01-16T15:02:45;4.40;93.10
20337;DHT22;10326;53.660;10.200;2024-01-16T15:05:14;4.30;93.10
20337;DHT22;10326;53.660;10.200;2024-01-16T15:07:41;4.30;93.10
20337;DHT22;10326;53.660;10.200;2024-01-16T15:10:10;4.30;93.10
20337;DHT22;10326;53.660;10.200;2024-01-16T15:12:41;4.30;93.10
20337;DHT22;10326;53.660;10.200;2024-01-16T15:15:09;4.20;93.00
20337;DHT22;10326;53.660;10.200;2024-01-16T15:17:39;4.30;93.10
20337;DHT22;10326;53.660;10.200;2024-01-16T15:20:07;4.30;93.10
20337;DHT22;10326;53.660;10.200;2024-01-16T15:22:37;4.30;93.10
20337;DHT22;10326;53.660;10.200;2024-01-16T15:25:05;4.20;93.00
20337;DHT22;10326;53.660;10.200;2024-01-16T15:27:33;4.20;93.00
20337;DHT22;10326;53.660;10.200;2024-01-16T15:30:01;4.20;93.00
20337;DHT22;10326;53.660;10.200;2024-01-16T15:32:29;4.20;93.00
20337;DHT22;10326;53.660;10.200;2024-01-16T15:34:58;4.20;93.00
20337;DHT22;10326;53.660;10.200;2024-01-16T15:37:25;4.20;93.00
20337;DHT22;10326;53.660;10.200;2024-01-16T15:39:54;4.30;93.10
20337;DHT22;10326;53.660;10.200;2024-01-16T15:42:22;4.30;93.00